Time;durP1;ratioP1;P1;durP2;ratioP2;P2;SDS_P1;SDS_P2;PMS_P1;PMS_P2;Temp;Humidity;BMP_temperature;BMP_pressure;BME280_temperature;BME280_humidity;BME280_pressure;Samples;Min_cycle;Max_cycle;Signal;HPM_P1;HPM_P2
2024/01/31 00:00:57;;;;;;;15.90;12.25;;;11.40;99.90;;;;;;4916523;29;20226;-75
2024/01/31 00:03:24;;;;;;;18.80;15.88;;;11.40;99.90;;;;;;4916171;29;20234;-75
2024/01/31 00:05:51;;;;;;;24.40;18.60;;;11.40;99.90;;;;;;4916626;29;20256;-79
2024/01/31 00:08:18;;;;;;;44.40;31.52;;;11.50;99.90;;;;;;4916006;29;20230;-79
2024/01/31 00:10:46;;;;;;;27.25;18.90;;;11.50;99.90;;;;;;4916820;29;20225;-75
2024/01/31 00:13:16;;;;;;;22.00;16.13;;;11.50;99.90;;;;;;4915746;29;20233;-75
2024/01/31 00:15:43;;;;;;;44.25;32.70;;;11.50;99.90;;;;;;4916611;29;20247;-75
2024/01/31 00:18:10;;;;;;;44.15;33.35;;;11.50;99.90;;;;;;4920614;29;20308;-79
2024/01/31 00:20:42;;;;;;;29.48;21.95;;;11.60;99.90;;;;;;4919718;29;20229;-77
2024/01/31 00:23:09;;;;;;;30.23;20.95;;;11.60;99.90;;;;;;4908654;29;20310;-74
2024/01/31 00:25:36;;;;;;;11.68;9.05;;;11.60;99.90;;;;;;4900958;29;20237;-77
2024/01/31 00:28:07;;;;;;;11.50;8.45;;;11.60;99.90;;;;;;4901812;29;20238;-76
2024/01/31 00:30:34;;;;;;;11.13;9.60;;;11.60;99.90;;;;;;4916819;29;21683;-76
2024/01/31 00:33:01;;;;;;;9.13;8.23;;;11.60;99.90;;;;;;4919518;29;20234;-77
2024/01/31 00:35:28;;;;;;;7.85;7.20;;;11.60;99.90;;;;;;4919388;29;20691;-77
2024/01/31 00:38:01;;;;;;;10.23;7.72;;;11.60;99.90;;;;;;4920459;29;20229;-76
2024/01/31 00:40:28;;;;;;;12.80;10.68;;;11.70;99.90;;;;;;4919559;29;20225;-78
2024/01/31 00:42:55;;;;;;;100.07;67.53;;;11.70;99.90;;;;;;4919533;29;20233;-76
2024/01/31 00:45:24;;;;;;;20.63;16.88;;;11.70;99.90;;;;;;4919404;29;20226;-74
2024/01/31 00:47:51;;;;;;;25.27;21.30;;;11.70;99.90;;;;;;4920554;29;20244;-77
2024/01/31 00:50:18;;;;;;;9.82;8.93;;;11.70;99.90;;;;;;4919320;29;20230;-77
2024/01/31 00:52:46;;;;;;;38.33;31.13;;;11.70;99.90;;;;;;4918866;29;20225;-77
2024/01/31 00:55:13;;;;;;;11.43;9.63;;;11.70;99.90;;;;;;4918584;29;20233;-75
2024/01/31 00:57:40;;;;;;;10.13;9.13;;;11.70;99.90;;;;;;4919265;29;20236;-76
2024/01/31 01:00:11;;;;;;;9.68;7.38;;;11.70;99.90;;;;;;4919309;29;20240;-75
2024/01/31 01:02:43;;;;;;;12.20;8.60;;;11.70;99.90;;;;;;4918574;29;20270;-75
2024/01/31 01:05:11;;;;;;;10.85;8.30;;;11.70;99.90;;;;;;4918746;29;20296;-76
2024/01/31 01:07:40;;;;;;;8.18;7.30;;;11.70;99.90;;;;;;4919390;29;20668;-77
2024/01/31 01:10:10;;;;;;;9.57;8.52;;;11.60;99.90;;;;;;4919013;29;20244;-76
2024/01/31 01:12:37;;;;;;;8.30;6.57;;;11.60;99.90;;;;;;4918815;29;20239;-76
2024/01/31 01:15:05;;;;;;;16.70;12.95;;;11.60;99.90;;;;;;4919648;29;20684;-75
2024/01/31 01:17:32;;;;;;;13.13;10.10;;;11.60;99.90;;;;;;4907280;29;20551;-76
2024/01/31 01:20:01;;;;;;;5.63;5.07;;;11.60;99.90;;;;;;4900359;29;20226;-76
2024/01/31 01:22:28;;;;;;;6.55;5.65;;;11.60;99.90;;;;;;4904692;29;20316;-77
2024/01/31 01:24:55;;;;;;;5.63;4.90;;;11.60;99.90;;;;;;4904406;29;20237;-76
2024/01/31 01:27:25;;;;;;;7.70;6.72;;;11.60;99.90;;;;;;4899215;29;20297;-76
2024/01/31 01:29:52;;;;;;;7.93;7.13;;;11.60;99.90;;;;;;4910451;29;20252;-78
2024/01/31 01:32:19;;;;;;;11.20;8.20;;;11.60;99.90;;;;;;4919004;29;20229;-78
2024/01/31 01:34:47;;;;;;;7.28;6.57;;;11.60;99.90;;;;;;4918016;29;20225;-78
2024/01/31 01:37:15;;;;;;;8.75;6.43;;;11.60;99.90;;;;;;4919082;29;20233;-78
2024/01/31 01:39:43;;;;;;;29.15;23.38;;;11.60;99.90;;;;;;4912137;29;20301;-78
2024/01/31 01:42:10;;;;;;;11.57;9.45;;;11.60;99.90;;;;;;4900100;29;20676;-77
2024/01/31 01:44:44;;;;;;;13.30;9.23;;;11.60;99.90;;;;;;4900152;29;20234;-75
2024/01/31 01:47:12;;;;;;;30.70;23.73;;;11.70;99.90;;;;;;4918892;29;20233;-78
2024/01/31 01:49:40;;;;;;;10.38;8.90;;;11.70;99.90;;;;;;4917675;29;20285;-78
2024/01/31 01:52:08;;;;;;;9.18;7.35;;;11.60;99.90;;;;;;4918976;29;20229;-78
2024/01/31 01:54:39;;;;;;;71.07;42.60;;;11.60;99.90;;;;;;4917697;29;20268;-76
2024/01/31 01:57:07;;;;;;;10.88;8.65;;;11.70;99.90;;;;;;4918936;29;20253;-74
2024/01/31 01:59:35;;;;;;;29.70;17.52;;;11.60;99.90;;;;;;4917886;29;20272;-75
2024/01/31 02:02:03;;;;;;;14.90;12.02;;;11.60;99.90;;;;;;4918700;29;20236;-74
2024/01/31 02:04:30;;;;;;;10.77;8.57;;;11.70;99.90;;;;;;4911502;29;20286;-76
2024/01/31 02:06:57;;;;;;;11.75;8.85;;;11.70;99.90;;;;;;4906317;29;20229;-74
2024/01/31 02:09:26;;;;;;;7.80;6.68;;;11.70;99.90;;;;;;4918653;29;20661;-74
2024/01/31 02:11:54;;;;;;;77.53;45.80;;;11.70;99.90;;;;;;4917482;29;20243;-75
2024/01/31 02:14:22;;;;;;;6.43;4.68;;;11.70;99.90;;;;;;4917944;29;20229;-74
2024/01/31 02:16:49;;;;;;;12.75;6.45;;;11.60;99.90;;;;;;4917545;29;20233;-74
2024/01/31 02:19:16;;;;;;;18.42;14.20;;;11.70;99.90;;;;;;4918360;29;20312;-74
2024/01/31 02:21:44;;;;;;;8.75;5.85;;;11.60;99.90;;;;;;4917896;29;20249;-76
2024/01/31 02:24:12;;;;;;;5.03;4.53;;;11.50;99.90;;;;;;4917980;29;20237;-74
2024/01/31 02:26:40;;;;;;;30.80;20.17;;;11.60;99.90;;;;;;4916967;29;20225;-76
2024/01/31 02:29:07;;;;;;;3.70;3.13;;;11.50;99.90;;;;;;4917949;29;20233;-74
2024/01/31 02:31:34;;;;;;;5.53;4.60;;;11.50;99.90;;;;;;4917961;29;20280;-76
2024/01/31 02:34:01;;;;;;;22.10;15.93;;;11.50;99.90;;;;;;4908911;29;20312;-75
2024/01/31 02:36:28;;;;;;;14.20;7.32;;;11.50;99.90;;;;;;4917815;29;20239;-75
2024/01/31 02:38:55;;;;;;;12.63;10.02;;;11.50;99.90;;;;;;4916778;29;20569;-75
2024/01/31 02:41:24;;;;;;;9.80;6.60;;;11.40;99.90;;;;;;4918039;29;20226;-77
2024/01/31 02:43:51;;;;;;;46.40;29.23;;;11.40;99.90;;;;;;4917256;29;20233;-77
2024/01/31 02:46:18;;;;;;;7.72;5.93;;;11.40;99.90;;;;;;4917853;29;20221;-77
2024/01/31 02:48:46;;;;;;;4.53;3.83;;;11.30;99.90;;;;;;4917400;29;20226;-77
2024/01/31 02:51:13;;;;;;;5.38;4.47;;;11.30;99.90;;;;;;4917799;29;20229;-75
2024/01/31 02:53:40;;;;;;;3.10;2.40;;;11.30;99.90;;;;;;4917420;29;20254;-75
2024/01/31 02:56:09;;;;;;;6.35;5.25;;;11.30;99.90;;;;;;4908033;29;20556;-77
2024/01/31 02:58:40;;;;;;;5.00;3.47;;;11.30;99.90;;;;;;4917210;29;20599;-76
2024/01/31 03:01:07;;;;;;;4.75;3.63;;;11.30;99.90;;;;;;4917344;29;20574;-75
2024/01/31 03:03:37;;;;;;;5.80;4.63;;;11.30;99.90;;;;;;4917580;29;20225;-75
2024/01/31 03:06:04;;;;;;;6.00;3.53;;;11.30;99.90;;;;;;4900296;29;20233;-77
2024/01/31 03:08:34;;;;;;;4.10;3.45;;;11.30;99.90;;;;;;4917537;29;20530;-77
2024/01/31 03:11:01;;;;;;;3.70;3.40;;;11.30;99.90;;;;;;4916923;29;20233;-75
2024/01/31 03:13:28;;;;;;;7.53;5.80;;;11.30;99.90;;;;;;4917237;29;20233;-75
2024/01/31 03:15:56;;;;;;;4.88;4.32;;;11.20;99.90;;;;;;4917237;29;20229;-77
2024/01/31 03:18:23;;;;;;;5.47;4.68;;;11.20;99.90;;;;;;4916884;29;20229;-75
2024/01/31 03:20:54;;;;;;;10.93;7.38;;;11.10;99.90;;;;;;4916075;29;20217;-75
2024/01/31 03:23:21;;;;;;;3.55;2.47;;;11.10;99.90;;;;;;4903277;29;20622;-75
2024/01/31 03:25:48;;;;;;;2.83;2.55;;;11.10;99.90;;;;;;4896753;29;20230;-77
2024/01/31 03:28:15;;;;;;;34.75;20.50;;;11.10;99.90;;;;;;4898453;29;20230;-75
2024/01/31 03:30:44;;;;;;;47.15;27.35;;;11.10;99.90;;;;;;4914251;29;20570;-75
2024/01/31 03:33:12;;;;;;;7.85;5.55;;;11.10;99.90;;;;;;4916916;29;20240;-76
2024/01/31 03:35:39;;;;;;;4.35;3.53;;;11.10;99.90;;;;;;4917193;29;20304;-75
2024/01/31 03:38:06;;;;;;;12.38;8.27;;;11.00;99.90;;;;;;4915746;29;20229;-75
2024/01/31 03:40:33;;;;;;;3.90;3.35;;;11.00;99.90;;;;;;4916456;29;20229;-75
2024/01/31 03:43:00;;;;;;;6.15;4.53;;;11.00;99.90;;;;;;4915064;29;20757;-75
2024/01/31 03:45:29;;;;;;;10.43;6.97;;;11.00;99.90;;;;;;4916004;29;20252;-75
2024/01/31 03:47:56;;;;;;;6.28;4.20;;;10.90;99.90;;;;;;4915711;29;20571;-77
2024/01/31 03:50:24;;;;;;;3.70;2.70;;;10.90;99.90;;;;;;4915952;29;20229;-77
2024/01/31 03:53:06;;;;;;;12.20;8.90;;;10.90;99.90;;;;;;4916014;29;20237;-77
2024/01/31 03:55:33;;;;;;;5.88;4.63;;;10.90;99.90;;;;;;4917100;29;20316;-75
2024/01/31 03:58:00;;;;;;;12.30;8.93;;;10.90;99.90;;;;;;4916381;29;20253;-75
2024/01/31 04:00:27;;;;;;;2.80;1.80;;;10.90;99.90;;;;;;4916939;29;20236;-75
2024/01/31 04:02:54;;;;;;;3.97;2.88;;;10.90;99.90;;;;;;4916565;29;20296;-75
2024/01/31 04:05:21;;;;;;;16.05;10.50;;;10.90;99.90;;;;;;4906949;29;20233;-77
2024/01/31 04:07:50;;;;;;;7.75;6.50;;;10.90;99.90;;;;;;4911219;29;20233;-77
2024/01/31 04:10:17;;;;;;;2.10;1.50;;;10.90;99.90;;;;;;4916513;29;20312;-75
2024/01/31 04:12:45;;;;;;;7.40;3.65;;;10.80;99.90;;;;;;4916839;29;20253;-75
2024/01/31 04:15:14;;;;;;;6.68;4.45;;;10.80;99.90;;;;;;4916389;29;20225;-75
2024/01/31 04:17:41;;;;;;;4.25;3.30;;;10.70;99.90;;;;;;4916919;29;20707;-75
2024/01/31 04:20:09;;;;;;;6.43;4.45;;;10.70;99.90;;;;;;4916558;29;20257;-75
2024/01/31 04:22:36;;;;;;;3.70;3.00;;;10.70;99.90;;;;;;4916677;29;20541;-77
2024/01/31 04:25:08;;;;;;;5.32;3.30;;;10.60;99.90;;;;;;4916226;29;20232;-77
2024/01/31 04:27:36;;;;;;;2.97;2.28;;;10.60;99.90;;;;;;4916920;29;20233;-77
2024/01/31 04:30:04;;;;;;;1.30;1.20;;;10.50;99.90;;;;;;4916232;29;20233;-77
2024/01/31 04:32:31;;;;;;;7.95;6.05;;;10.50;99.90;;;;;;4916645;29;20233;-75
2024/01/31 04:34:58;;;;;;;3.15;2.85;;;10.50;99.90;;;;;;4916312;29;20732;-77
2024/01/31 04:37:25;;;;;;;5.05;3.83;;;10.50;99.90;;;;;;4916677;29;20241;-75
2024/01/31 04:39:52;;;;;;;2.55;2.25;;;10.50;99.90;;;;;;4916414;29;20225;-77
2024/01/31 04:42:20;;;;;;;53.20;30.40;;;10.50;99.90;;;;;;4916235;29;20236;-75
2024/01/31 04:44:47;;;;;;;6.43;4.30;;;10.40;99.90;;;;;;4916587;29;20237;-75
2024/01/31 04:47:14;;;;;;;2.78;2.33;;;10.50;99.90;;;;;;4916260;29;20229;-75
2024/01/31 04:49:41;;;;;;;1.40;1.30;;;10.40;99.90;;;;;;4916461;29;20221;-75
2024/01/31 04:52:08;;;;;;;2.88;2.17;;;10.40;99.90;;;;;;4915761;29;20240;-75
2024/01/31 04:54:39;;;;;;;13.10;9.30;;;10.40;99.90;;;;;;4904951;29;20245;-76
2024/01/31 04:57:06;;;;;;;6.97;4.68;;;10.40;99.90;;;;;;4896489;29;20256;-77
2024/01/31 04:59:38;;;;;;;5.07;2.40;;;10.40;99.90;;;;;;4897727;29;20225;-75
2024/01/31 05:02:06;;;;;;;69.07;32.00;;;10.50;99.90;;;;;;4897969;29;20246;-75
2024/01/31 05:04:33;;;;;;;7.68;4.85;;;10.40;99.90;;;;;;4901235;29;20230;-75
2024/01/31 05:07:00;;;;;;;7.10;4.80;;;10.40;99.90;;;;;;4900546;29;20313;-75
2024/01/31 05:09:27;;;;;;;11.02;7.90;;;10.40;99.90;;;;;;4900298;29;20232;-75
2024/01/31 05:11:54;;;;;;;10.63;6.57;;;10.40;99.90;;;;;;4900925;29;20551;-75
2024/01/31 05:14:21;;;;;;;19.40;12.98;;;10.40;99.90;;;;;;4900748;29;20551;-74
2024/01/31 05:16:50;;;;;;;4.85;3.95;;;10.30;99.90;;;;;;4900878;29;20226;-75
2024/01/31 05:19:17;;;;;;;8.43;6.15;;;10.30;99.90;;;;;;4900411;29;20688;-77
2024/01/31 05:21:47;;;;;;;1.95;1.80;;;10.20;99.90;;;;;;4900540;29;20226;-75
2024/01/31 05:24:14;;;;;;;9.57;6.47;;;10.20;99.90;;;;;;4899937;29;20240;-75
2024/01/31 05:26:42;;;;;;;11.68;7.70;;;10.10;99.90;;;;;;4900729;29;20218;-77
2024/01/31 05:29:09;;;;;;;5.97;2.28;;;10.10;99.90;;;;;;4900046;29;20234;-77
2024/01/31 05:31:36;;;;;;;11.30;7.65;;;10.00;99.90;;;;;;4900546;29;20230;-77
2024/01/31 05:34:05;;;;;;;2.80;2.17;;;10.00;99.90;;;;;;4900139;29;20246;-75
2024/01/31 05:36:32;;;;;;;5.07;3.88;;;9.90;99.90;;;;;;4899464;29;20313;-77
2024/01/31 05:38:59;;;;;;;3.20;2.90;;;9.90;99.90;;;;;;4900309;29;20246;-77
2024/01/31 05:41:26;;;;;;;28.20;23.73;;;9.80;99.90;;;;;;4900076;29;20224;-77
2024/01/31 05:43:53;;;;;;;4.03;2.50;;;9.70;99.90;;;;;;4899750;29;20234;-77
2024/01/31 05:46:20;;;;;;;2.13;1.95;;;9.70;99.90;;;;;;4899341;29;20230;-77
2024/01/31 05:48:52;;;;;;;5.55;3.58;;;9.70;99.90;;;;;;4900459;29;20313;-77
2024/01/31 05:51:22;;;;;;;4.93;2.55;;;9.60;99.90;;;;;;4899529;29;20333;-75
2024/01/31 05:53:49;;;;;;;8.60;5.60;;;9.60;99.90;;;;;;4899540;29;20238;-75
2024/01/31 05:56:17;;;;;;;2.53;2.33;;;9.60;99.90;;;;;;4899670;29;20578;-75
2024/01/31 05:58:43;;;;;;;2.65;2.22;;;9.50;99.90;;;;;;4900128;29;20646;-75
2024/01/31 06:01:10;;;;;;;4.15;2.63;;;9.50;99.90;;;;;;4899105;29;20238;-75
2024/01/31 06:03:37;;;;;;;15.35;10.52;;;9.40;99.90;;;;;;4891879;29;20233;-75
2024/01/31 06:06:06;;;;;;;17.65;11.98;;;9.40;99.90;;;;;;4899963;29;20226;-75
2024/01/31 06:08:37;;;;;;;3.00;2.55;;;9.40;99.90;;;;;;4899661;29;20230;-77
2024/01/31 06:11:08;;;;;;;16.00;11.18;;;9.40;99.90;;;;;;4899878;29;20244;-77
2024/01/31 06:13:35;;;;;;;9.45;7.97;;;9.30;99.90;;;;;;4898873;29;20326;-77
2024/01/31 06:16:03;;;;;;;5.30;3.25;;;9.30;99.90;;;;;;4899716;29;20233;-77
2024/01/31 06:18:34;;;;;;;1.83;1.60;;;9.30;99.90;;;;;;4899506;29;20231;-76
2024/01/31 06:21:02;;;;;;;7.43;4.55;;;9.30;99.90;;;;;;4899740;29;20230;-77
2024/01/31 06:23:29;;;;;;;6.45;4.40;;;9.30;99.90;;;;;;4898999;29;20329;-77
2024/01/31 06:26:00;;;;;;;7.40;4.97;;;9.30;99.90;;;;;;4899477;29;20226;-77
2024/01/31 06:28:27;;;;;;;3.05;2.42;;;9.30;99.90;;;;;;4898646;29;20261;-77
2024/01/31 06:30:59;;;;;;;1.70;1.40;;;9.30;99.90;;;;;;4899239;29;20238;-77
2024/01/31 06:33:31;;;;;;;5.68;2.90;;;9.30;99.90;;;;;;4898945;29;20233;-77
2024/01/31 06:36:00;;;;;;;2.28;1.60;;;9.30;99.90;;;;;;4899328;29;20305;-77
2024/01/31 06:38:26;;;;;;;1.42;1.33;;;9.20;99.90;;;;;;4898896;29;20230;-77
2024/01/31 06:40:58;;;;;;;3.00;1.83;;;9.20;99.90;;;;;;4899318;29;20715;-77
2024/01/31 06:43:26;;;;;;;2.67;1.40;;;9.20;99.90;;;;;;4898694;29;20248;-77
2024/01/31 06:45:54;;;;;;;1.33;1.20;;;9.20;99.90;;;;;;4899205;29;20237;-77
2024/01/31 06:48:23;;;;;;;10.95;8.43;;;9.20;99.90;;;;;;4898144;29;20237;-77
2024/01/31 06:50:53;;;;;;;2.95;2.60;;;9.20;99.90;;;;;;4899115;29;20383;-77
2024/01/31 06:53:20;;;;;;;1.73;1.63;;;9.20;99.90;;;;;;4898459;29;20325;-77
2024/01/31 06:55:46;;;;;;;6.80;5.25;;;9.30;99.90;;;;;;4898710;29;20230;-77
2024/01/31 06:58:13;;;;;;;7.78;5.88;;;9.20;99.90;;;;;;4899006;29;20236;-77
2024/01/31 07:00:42;;;;;;;3.35;2.75;;;9.20;99.90;;;;;;4898616;29;20222;-77
2024/01/31 07:03:09;;;;;;;3.70;2.70;;;9.20;99.90;;;;;;4899017;29;20253;-77
2024/01/31 07:05:36;;;;;;;2.25;1.75;;;9.20;99.90;;;;;;4898682;29;20254;-77
2024/01/31 07:08:03;;;;;;;6.22;3.50;;;9.10;99.90;;;;;;4898975;29;20230;-77
2024/01/31 07:10:30;;;;;;;3.95;3.35;;;9.10;99.90;;;;;;4898603;29;20268;-77
2024/01/31 07:12:57;;;;;;;5.78;3.85;;;9.10;99.90;;;;;;4898732;29;20234;-75
2024/01/31 07:15:24;;;;;;;1.88;1.48;;;9.10;99.90;;;;;;4898298;29;20234;-77
2024/01/31 07:17:52;;;;;;;7.22;3.95;;;9.10;99.90;;;;;;4898926;29;20661;-77
2024/01/31 07:20:19;;;;;;;5.30;3.03;;;9.00;99.90;;;;;;4889280;29;20667;-77
2024/01/31 07:22:46;;;;;;;0.95;0.80;;;9.10;99.90;;;;;;4898096;29;20649;-77
2024/01/31 07:25:14;;;;;;;1.83;1.30;;;9.00;99.90;;;;;;4897583;29;20696;-77
2024/01/31 07:27:42;;;;;;;1.52;1.20;;;9.00;99.90;;;;;;4897777;29;20282;-77
2024/01/31 07:30:11;;;;;;;4.53;3.38;;;8.90;99.90;;;;;;4898250;29;20685;-77
2024/01/31 07:32:38;;;;;;;1.30;1.20;;;8.90;99.90;;;;;;4897891;29;20231;-75
2024/01/31 07:35:08;;;;;;;2.17;1.08;;;8.90;99.90;;;;;;4898279;29;20268;-75
2024/01/31 07:37:36;;;;;;;2.53;1.30;;;8.90;99.90;;;;;;4897683;29;20238;-74
2024/01/31 07:40:04;;;;;;;4.05;2.17;;;8.80;99.90;;;;;;4898336;29;20230;-79
2024/01/31 07:42:33;;;;;;;4.18;3.17;;;8.90;99.90;;;;;;4897480;29;20234;-76
2024/01/31 07:45:00;;;;;;;2.00;1.30;;;8.90;99.90;;;;;;4898394;29;20642;-76
2024/01/31 07:47:26;;;;;;;1.50;1.40;;;8.80;99.90;;;;;;4897951;29;20692;-74
2024/01/31 07:49:55;;;;;;;2.20;1.60;;;8.80;99.90;;;;;;4898029;29;20230;-76
2024/01/31 07:52:23;;;;;;;13.93;7.78;;;8.80;99.90;;;;;;4898099;29;20233;-76
2024/01/31 07:54:50;;;;;;;3.03;2.17;;;8.80;99.90;;;;;;4898084;29;20299;-76
2024/01/31 07:57:17;;;;;;;3.55;2.60;;;8.80;99.90;;;;;;4898001;29;20226;-76
2024/01/31 07:59:44;;;;;;;3.13;2.80;;;8.70;99.90;;;;;;4897707;29;20230;-76
2024/01/31 08:02:11;;;;;;;3.67;1.55;;;8.80;99.90;;;;;;4898328;29;20631;-76
2024/01/31 08:04:38;;;;;;;3.10;1.90;;;8.80;99.90;;;;;;4896780;29;20244;-76
2024/01/31 08:07:05;;;;;;;3.47;1.85;;;8.80;99.90;;;;;;4898207;29;20613;-76
2024/01/31 08:09:37;;;;;;;5.10;3.35;;;8.80;99.90;;;;;;4897736;29;20230;-76
2024/01/31 08:12:04;;;;;;;5.53;4.95;;;8.80;99.90;;;;;;4897956;29;20238;-76
2024/01/31 08:14:31;;;;;;;3.15;2.30;;;8.80;99.90;;;;;;4897518;29;20237;-76
2024/01/31 08:16:58;;;;;;;1.98;1.35;;;8.80;99.90;;;;;;4898126;29;20234;-76
2024/01/31 08:19:25;;;;;;;1.10;1.00;;;8.80;99.90;;;;;;4897918;29;20234;-76
2024/01/31 08:21:53;;;;;;;4.70;2.35;;;8.90;99.90;;;;;;4897504;29;20234;-76
2024/01/31 08:24:20;;;;;;;3.53;1.80;;;8.90;99.90;;;;;;4898124;29;20237;-76
2024/01/31 08:26:48;;;;;;;1.33;1.00;;;8.90;99.90;;;;;;4897390;29;20226;-76
2024/01/31 08:29:15;;;;;;;6.00;4.32;;;8.90;99.90;;;;;;4898088;29;20230;-76
2024/01/31 08:31:42;;;;;;;7.07;5.82;;;8.90;99.90;;;;;;4897617;29;20252;-76
2024/01/31 08:34:09;;;;;;;7.07;5.10;;;8.90;99.90;;;;;;4897977;29;20246;-76
2024/01/31 08:36:40;;;;;;;7.45;6.60;;;8.90;99.90;;;;;;4888221;29;20230;-76
2024/01/31 08:39:08;;;;;;;9.77;7.10;;;9.00;99.90;;;;;;4900330;29;20250;-76
2024/01/31 08:41:35;;;;;;;14.57;9.60;;;9.00;99.90;;;;;;4901368;29;20222;-76
2024/01/31 08:44:04;;;;;;;2.20;2.00;;;9.00;99.90;;;;;;4901540;29;20242;-76
2024/01/31 08:46:31;;;;;;;18.02;13.25;;;9.00;99.90;;;;;;4901967;29;20233;-76
2024/01/31 08:48:58;;;;;;;2.00;1.80;;;9.00;99.90;;;;;;4901827;29;20232;-77
2024/01/31 08:51:26;;;;;;;3.28;1.92;;;9.00;99.90;;;;;;4899859;29;20237;-76
2024/01/31 08:53:53;;;;;;;5.35;4.35;;;8.90;99.90;;;;;;4901072;29;20246;-78
2024/01/31 08:56:20;;;;;;;2.35;1.90;;;8.90;99.90;;;;;;4891815;29;20230;-78
2024/01/31 08:58:47;;;;;;;9.35;4.45;;;8.80;99.90;;;;;;4900954;29;20240;-78
2024/01/31 09:01:15;;;;;;;5.57;4.47;;;8.70;99.90;;;;;;4902905;29;20241;-78
2024/01/31 09:03:43;;;;;;;8.32;4.20;;;8.60;99.90;;;;;;4901418;29;20237;-78
2024/01/31 09:06:10;;;;;;;2.20;1.70;;;8.60;99.90;;;;;;4901562;29;20553;-76
2024/01/31 09:08:41;;;;;;;2.50;1.85;;;8.50;99.90;;;;;;4901634;29;20230;-76
2024/01/31 09:11:08;;;;;;;3.42;2.60;;;8.50;99.90;;;;;;4891496;29;20230;-76
2024/01/31 09:13:36;;;;;;;3.47;3.15;;;8.50;99.90;;;;;;4900291;29;20260;-76
2024/01/31 09:16:06;;;;;;;5.63;4.07;;;8.50;99.90;;;;;;4900892;29;20238;-78
2024/01/31 09:18:35;;;;;;;10.40;7.85;;;8.50;99.90;;;;;;4901677;29;20226;-76
2024/01/31 09:21:04;;;;;;;2.92;2.65;;;8.50;99.90;;;;;;4900152;29;20226;-78
2024/01/31 09:23:33;;;;;;;9.05;5.22;;;8.60;99.90;;;;;;4901859;29;20234;-76
2024/01/31 09:26:01;;;;;;;5.03;2.67;;;8.60;99.90;;;;;;4899395;29;20230;-76
2024/01/31 09:28:28;;;;;;;2.83;2.28;;;8.60;99.90;;;;;;4901327;29;20226;-76
2024/01/31 09:30:55;;;;;;;3.15;2.20;;;8.60;99.90;;;;;;4900764;29;20309;-76
2024/01/31 09:33:23;;;;;;;6.50;3.67;;;8.60;99.90;;;;;;4902191;29;20230;-78
2024/01/31 09:35:51;;;;;;;4.32;1.50;;;8.60;99.90;;;;;;4901283;29;20266;-78
2024/01/31 09:38:19;;;;;;;3.33;1.55;;;8.70;99.90;;;;;;4901673;29;20226;-75
2024/01/31 09:40:46;;;;;;;3.58;2.85;;;8.70;99.90;;;;;;4900890;29;20266;-76
2024/01/31 09:43:13;;;;;;;2.50;1.60;;;8.70;99.90;;;;;;4900399;29;20226;-78
2024/01/31 09:45:43;;;;;;;1.80;1.70;;;8.70;99.90;;;;;;4902637;29;20316;-75
2024/01/31 09:48:13;;;;;;;3.50;2.55;;;8.70;99.90;;;;;;4900778;29;20557;-75
2024/01/31 09:50:41;;;;;;;4.75;4.15;;;8.70;99.90;;;;;;4901904;29;20229;-77
2024/01/31 09:53:13;;;;;;;5.97;2.85;;;8.70;99.90;;;;;;4901436;29;20582;-77
2024/01/31 09:55:42;;;;;;;2.10;1.63;;;8.70;99.90;;;;;;4901617;29;20313;-77
2024/01/31 09:58:09;;;;;;;2.60;2.40;;;8.70;99.90;;;;;;4900668;29;20241;-77
2024/01/31 10:00:37;;;;;;;8.18;3.97;;;8.70;99.90;;;;;;4902110;29;20226;-75
2024/01/31 10:03:05;;;;;;;2.40;1.40;;;8.70;99.90;;;;;;4906011;29;20234;-75
2024/01/31 10:05:33;;;;;;;1.80;1.52;;;8.70;99.90;;;;;;4905198;29;20587;-75
2024/01/31 10:08:03;;;;;;;2.60;1.17;;;8.70;99.90;;;;;;4900705;29;20244;-75
2024/01/31 10:10:32;;;;;;;2.85;2.60;;;8.70;99.90;;;;;;4901075;29;20234;-75
2024/01/31 10:12:59;;;;;;;1.42;1.30;;;8.80;99.90;;;;;;4900970;29;20241;-76
2024/01/31 10:15:26;;;;;;;2.30;1.70;;;8.90;99.90;;;;;;4902017;29;20233;-75
2024/01/31 10:17:54;;;;;;;2.45;1.83;;;8.90;99.90;;;;;;4900634;29;20222;-75
2024/01/31 10:20:22;;;;;;;2.70;1.35;;;8.90;99.90;;;;;;4902947;29;20699;-74
2024/01/31 10:22:50;;;;;;;6.38;1.73;;;8.90;99.90;;;;;;4907271;29;20693;-74
2024/01/31 10:25:18;;;;;;;19.20;9.70;;;8.90;99.90;;;;;;4908873;29;20248;-75
2024/01/31 10:27:47;;;;;;;6.30;4.00;;;9.00;99.90;;;;;;4908642;29;20226;-75
2024/01/31 10:30:15;;;;;;;4.60;2.58;;;9.00;99.90;;;;;;4903591;29;20229;-75
2024/01/31 10:32:42;;;;;;;2.50;2.30;;;9.00;99.90;;;;;;4904829;29;20233;-76
2024/01/31 10:35:09;;;;;;;4.75;3.63;;;9.00;99.90;;;;;;4904780;29;20229;-75
2024/01/31 10:37:36;;;;;;;3.47;2.05;;;8.90;99.90;;;;;;4905640;29;20236;-75
2024/01/31 10:40:06;;;;;;;2.00;1.73;;;9.00;99.90;;;;;;4905378;29;20238;-75
2024/01/31 10:42:33;;;;;;;3.17;1.85;;;9.00;99.90;;;;;;4902578;29;20230;-75
2024/01/31 10:45:03;;;;;;;2.47;2.25;;;9.00;99.90;;;;;;4904149;29;20264;-75
2024/01/31 10:47:30;;;;;;;4.10;2.90;;;9.00;99.90;;;;;;4905270;29;20703;-75
2024/01/31 10:49:58;;;;;;;11.85;7.13;;;9.10;99.90;;;;;;4903766;29;20693;-75
2024/01/31 10:52:32;;;;;;;8.23;4.18;;;9.10;99.90;;;;;;4901944;29;20234;-77
2024/01/31 10:55:03;;;;;;;3.17;2.35;;;9.00;99.90;;;;;;4904147;29;20226;-77
2024/01/31 10:57:31;;;;;;;2.92;2.20;;;9.00;99.90;;;;;;4904624;29;20664;-76
2024/01/31 10:59:58;;;;;;;7.03;3.65;;;9.00;99.90;;;;;;4901330;29;20226;-76
2024/01/31 11:02:33;;;;;;;7.35;4.30;;;9.00;99.90;;;;;;4903859;29;20240;-76
2024/01/31 11:05:03;;;;;;;6.78;2.22;;;8.90;99.90;;;;;;4901036;29;20236;-75
2024/01/31 11:07:31;;;;;;;5.30;4.22;;;8.80;99.90;;;;;;4899395;29;20307;-75
2024/01/31 11:10:00;;;;;;;5.28;3.30;;;8.80;99.90;;;;;;4899719;29;20236;-77
2024/01/31 11:12:29;;;;;;;5.55;3.20;;;8.70;99.90;;;;;;4899392;29;20614;-77
2024/01/31 11:14:59;;;;;;;12.90;3.50;;;8.70;99.90;;;;;;4900669;29;20242;-77
2024/01/31 11:17:27;;;;;;;9.68;3.10;;;8.70;99.90;;;;;;4899892;29;20657;-77
2024/01/31 11:19:59;;;;;;;6.22;3.70;;;8.60;99.90;;;;;;4900317;29;20317;-77
2024/01/31 11:22:27;;;;;;;6.13;2.60;;;8.70;99.90;;;;;;4899992;29;20286;-77
2024/01/31 11:24:55;;;;;;;6.68;2.97;;;8.70;99.90;;;;;;4900580;29;20225;-77
2024/01/31 11:27:22;;;;;;;4.32;3.28;;;8.70;99.90;;;;;;4898587;29;20237;-77
2024/01/31 11:29:50;;;;;;;4.20;2.67;;;8.70;99.90;;;;;;4899831;29;20221;-77
2024/01/31 11:32:18;;;;;;;4.85;2.80;;;8.80;99.90;;;;;;4899628;29;20294;-77
2024/01/31 11:34:45;;;;;;;4.88;2.45;;;8.80;99.90;;;;;;4899579;29;20222;-75
2024/01/31 11:37:14;;;;;;;8.40;2.90;;;8.80;99.90;;;;;;4897884;29;20302;-75
2024/01/31 11:39:41;;;;;;;2.53;2.30;;;8.80;99.90;;;;;;4900943;29;20230;-77
2024/01/31 11:42:09;;;;;;;3.65;2.25;;;8.90;99.90;;;;;;4898669;29;20226;-77
2024/01/31 11:44:36;;;;;;;8.48;2.67;;;8.80;99.90;;;;;;4899791;29;20611;-77
2024/01/31 11:47:04;;;;;;;3.35;1.90;;;8.80;99.90;;;;;;4903783;29;20230;-75
2024/01/31 11:49:31;;;;;;;3.60;1.98;;;8.80;99.90;;;;;;4898853;29;20230;-75
2024/01/31 11:51:59;;;;;;;7.63;3.60;;;8.90;99.90;;;;;;4898713;29;20561;-77
2024/01/31 11:54:29;;;;;;;5.05;1.95;;;8.90;99.90;;;;;;4898064;29;20230;-75
2024/01/31 11:56:56;;;;;;;4.82;1.95;;;8.90;99.90;;;;;;4899007;29;20229;-76
2024/01/31 11:59:23;;;;;;;2.28;1.75;;;8.90;99.90;;;;;;4896649;29;20225;-75
2024/01/31 12:01:51;;;;;;;6.03;1.70;;;9.00;99.90;;;;;;4898877;29;20230;-77
2024/01/31 12:04:18;;;;;;;5.15;1.70;;;9.00;99.90;;;;;;4897792;29;20230;-77
2024/01/31 12:06:48;;;;;;;5.30;2.47;;;9.00;99.90;;;;;;4899505;29;20241;-77
2024/01/31 12:09:20;;;;;;;6.07;2.10;;;9.00;99.90;;;;;;4898832;29;20681;-76
2024/01/31 12:11:48;;;;;;;4.50;1.98;;;9.00;99.90;;;;;;4900532;29;20696;-77
2024/01/31 12:14:16;;;;;;;6.55;2.42;;;9.00;99.90;;;;;;4903082;29;20272;-77
2024/01/31 12:16:43;;;;;;;2.92;1.63;;;9.00;99.90;;;;;;4893596;29;20225;-75
2024/01/31 12:19:10;;;;;;;3.78;1.77;;;9.00;99.90;;;;;;4901794;29;20272;-77
2024/01/31 12:21:42;;;;;;;2.00;1.73;;;9.10;99.90;;;;;;4902021;29;20226;-75
2024/01/31 12:24:09;;;;;;;3.95;2.30;;;9.10;99.90;;;;;;4905413;29;20226;-78
2024/01/31 12:26:39;;;;;;;7.15;3.10;;;9.10;99.90;;;;;;4901225;29;20230;-76
2024/01/31 12:29:08;;;;;;;4.78;2.53;;;9.10;99.90;;;;;;4901879;29;20230;-76
2024/01/31 12:31:35;;;;;;;4.90;2.25;;;9.10;99.90;;;;;;4901846;29;20257;-78
2024/01/31 12:34:03;;;;;;;2.85;2.22;;;9.10;99.90;;;;;;4901706;29;20245;-76
2024/01/31 12:36:30;;;;;;;6.90;2.60;;;9.10;99.90;;;;;;4891598;29;20237;-76
2024/01/31 12:39:00;;;;;;;5.47;2.88;;;9.10;99.90;;;;;;4901766;29;20252;-75
2024/01/31 12:41:27;;;;;;;5.30;3.10;;;9.00;99.90;;;;;;4901423;29;20688;-76
2024/01/31 12:43:57;;;;;;;2.97;2.65;;;9.00;99.90;;;;;;4901539;29;20242;-75
2024/01/31 12:46:26;;;;;;;3.55;2.50;;;9.10;99.90;;;;;;4890509;29;20230;-77
2024/01/31 12:48:53;;;;;;;3.70;2.25;;;9.10;99.90;;;;;;4901929;29;20242;-78
2024/01/31 12:51:22;;;;;;;5.40;2.20;;;9.10;99.90;;;;;;4900797;29;20226;-79